Time;durP1;ratioP1;P1;durP2;ratioP2;P2;SDS_P1;SDS_P2;PMS_P1;PMS_P2;Temp;Humidity;BMP_temperature;BMP_pressure;BME280_temperature;BME280_humidity;BME280_pressure;Samples;Min_cycle;Max_cycle;Signal;HPM_P1;HPM_P2
2022/04/18 00:02:21;;;;;;;1.60;1.50;;;;;;;4.73;100.00;98976.06;10566587;27;20052;-59
2022/04/18 00:07:26;;;;;;;2.13;1.35;;;;;;;4.62;100.00;98968.84;10568490;27;20053;-59
2022/04/18 00:12:30;;;;;;;2.35;1.40;;;;;;;4.53;100.00;98972.13;10569395;27;20044;-60
2022/04/18 00:17:33;;;;;;;1.42;1.30;;;;;;;4.47;100.00;98969.94;10549663;27;20050;-59
2022/04/18 00:22:37;;;;;;;2.60;1.42;;;;;;;4.40;100.00;98958.84;10568789;27;20043;-58
2022/04/18 00:27:40;;;;;;;1.63;1.52;;;;;;;4.31;100.00;98956.81;10547150;27;20051;-54
2022/04/18 00:32:43;;;;;;;1.60;1.50;;;;;;;4.27;100.00;98961.53;10564635;27;20240;-60
2022/04/18 00:37:47;;;;;;;1.90;1.35;;;;;;;4.24;100.00;98955.53;10545671;27;20047;-59
2022/04/18 00:42:50;;;;;;;1.60;1.40;;;;;;;4.21;100.00;98953.94;10579876;27;20133;-57
2022/04/18 00:47:53;;;;;;;2.50;1.33;;;;;;;4.21;100.00;98955.75;10546934;27;20048;-60
2022/04/18 00:52:58;;;;;;;1.70;1.30;;;;;;;4.19;100.00;98949.69;10567479;27;20065;-60
2022/04/18 00:58:02;;;;;;;2.05;1.20;;;;;;;4.13;100.00;98948.31;10548433;27;20151;-61
2022/04/18 01:03:05;;;;;;;1.42;1.20;;;;;;;4.11;100.00;98943.09;10566686;27;20047;-55
2022/04/18 01:08:10;;;;;;;1.60;1.30;;;;;;;3.96;100.00;98928.97;10564544;27;20546;-57
2022/04/18 01:13:13;;;;;;;1.48;1.38;;;;;;;3.89;100.00;98927.72;10565828;27;20039;-60
2022/04/18 01:18:25;;;;;;;2.25;1.55;;;;;;;3.79;100.00;98926.66;10545726;27;20094;-60
2022/04/18 01:23:43;;;;;;;2.30;1.20;;;;;;;3.77;100.00;98928.56;10562917;27;20127;-59
2022/04/18 01:29:01;;;;;;;1.98;1.35;;;;;;;3.72;100.00;98920.88;10547265;27;20051;-56
2022/04/18 01:34:08;;;;;;;2.00;1.30;;;;;;;3.64;100.00;98908.09;10560587;27;20268;-59
2022/04/18 01:39:12;;;;;;;2.05;1.40;;;;;;;3.60;100.00;98903.06;10547087;27;20110;-59
2022/04/18 01:44:16;;;;;;;2.63;1.30;;;;;;;3.52;100.00;98892.94;10561463;27;20050;-56
2022/04/18 01:49:19;;;;;;;1.23;1.13;;;;;;;3.42;100.00;98895.38;10520139;27;20090;-61
2022/04/18 01:54:23;;;;;;;1.45;1.10;;;;;;;3.37;100.00;98889.50;10562574;27;20050;-58
2022/04/18 01:59:26;;;;;;;1.38;1.13;;;;;;;3.28;100.00;98890.97;10562195;27;20146;-56
2022/04/18 02:04:29;;;;;;;1.30;1.20;;;;;;;3.20;100.00;98885.31;10545668;28;20055;-57
2022/04/18 02:09:34;;;;;;;1.80;1.23;;;;;;;3.13;100.00;98870.69;10547780;28;20054;-56
2022/04/18 02:14:37;;;;;;;1.80;1.30;;;;;;;3.04;100.00;98866.88;10548575;28;20129;-55
2022/04/18 02:19:40;;;;;;;2.45;1.48;;;;;;;2.96;100.00;98867.38;10561883;28;21443;-54
2022/04/18 02:24:44;;;;;;;1.55;1.10;;;;;;;2.88;100.00;98861.72;10561191;28;20138;-55
2022/04/18 02:29:47;;;;;;;2.72;1.23;;;;;;;2.78;100.00;98859.63;10565951;28;20071;-57
2022/04/18 02:34:50;;;;;;;1.50;1.40;;;;;;;2.66;100.00;98863.09;10564258;28;20062;-55
2022/04/18 02:39:59;;;;;;;2.83;1.50;;;;;;;2.57;100.00;98858.38;10545548;28;20130;-57
2022/04/18 02:45:05;;;;;;;2.95;1.50;;;;;;;2.48;100.00;98851.84;10561972;28;20051;-56
2022/04/18 02:50:40;;;;;;;1.88;1.30;;;;;;;2.40;100.00;98852.38;10539746;27;20135;-58
2022/04/18 02:55:45;;;;;;;2.08;1.45;;;;;;;2.37;100.00;98841.06;10551827;27;20059;-58
2022/04/18 03:00:48;;;;;;;2.22;1.50;;;;;;;2.28;100.00;98832.72;10568846;27;20236;-56
2022/04/18 03:05:51;;;;;;;1.65;1.55;;;;;;;2.17;100.00;98829.06;10571305;27;20087;-59
2022/04/18 03:11:06;;;;;;;1.92;1.70;;;;;;;2.09;100.00;98824.22;10554057;27;20135;-59
2022/04/18 03:16:12;;;;;;;4.53;1.80;;;;;;;2.02;100.00;98820.25;10566313;27;20420;-58
2022/04/18 03:21:16;;;;;;;1.60;1.45;;;;;;;1.96;100.00;98810.84;10569829;27;20105;-55
2022/04/18 03:26:22;;;;;;;2.22;1.58;;;;;;;1.88;100.00;98803.38;10570428;27;21283;-58
2022/04/18 03:31:35;;;;;;;1.80;1.58;;;;;;;1.79;100.00;98801.28;10569981;27;20191;-56
2022/04/18 03:42:01;;;;;;;1.60;1.50;;;;;;;1.56;100.00;98792.13;10566460;27;20047;-55
2022/04/18 03:47:05;;;;;;;2.50;1.70;;;;;;;1.48;100.00;98790.78;10572106;27;20607;-57
2022/04/18 03:52:09;;;;;;;1.58;1.48;;;;;;;1.43;100.00;98789.34;10572224;27;20055;-56
2022/04/18 03:57:15;;;;;;;1.67;1.40;;;;;;;1.36;100.00;98783.56;10569425;27;20504;-56
2022/04/18 04:02:25;;;;;;;1.50;1.40;;;;;;;1.30;100.00;98782.13;10550995;27;20054;-58
2022/04/18 04:07:30;;;;;;;2.47;1.90;;;;;;;1.24;100.00;98782.53;10548553;27;20074;-54
2022/04/18 04:12:51;;;;;;;1.95;1.50;;;;;;;1.18;100.00;98782.88;10563179;27;20056;-55
2022/04/18 04:18:15;;;;;;;2.67;1.98;;;;;;;1.13;100.00;98782.31;10536560;27;20059;-54
2022/04/18 04:23:18;;;;;;;2.35;1.63;;;;;;;1.05;100.00;98783.66;10568240;27;20043;-57
2022/04/18 04:28:35;;;;;;;1.95;1.55;;;;;;;1.02;100.00;98783.81;10552393;27;20055;-61
2022/04/18 04:33:46;;;;;;;1.92;1.73;;;;;;;1.03;100.00;98785.53;10553294;27;20047;-56
2022/04/18 04:38:49;;;;;;;2.38;1.90;;;;;;;1.03;100.00;98784.66;10551667;27;20058;-55
2022/04/18 04:44:08;;;;;;;1.77;1.58;;;;;;;1.04;100.00;98781.06;10567091;27;20055;-53
2022/04/18 04:49:31;;;;;;;2.58;1.80;;;;;;;1.06;100.00;98787.97;10568539;27;20464;-55
2022/04/18 04:54:55;;;;;;;2.03;1.60;;;;;;;1.10;100.00;98783.38;10564696;27;20058;-55
2022/04/18 05:00:20;;;;;;;1.95;1.63;;;;;;;1.13;100.00;98783.16;10555519;27;20047;-55
2022/04/18 05:12:34;;;;;;;2.10;1.50;;;;;;;1.21;100.00;98778.25;10634003;27;20480;-61
2022/04/18 05:17:40;;;;;;;2.28;1.70;;;;;;;1.24;100.00;98782.53;10601665;27;20102;-54
2022/04/18 05:22:46;;;;;;;2.50;1.65;;;;;;;1.27;100.00;98792.97;10566367;27;20096;-60
2022/04/18 05:27:52;;;;;;;2.13;1.65;;;;;;;1.32;100.00;98788.19;10547070;27;20052;-60
2022/04/18 05:33:21;;;;;;;2.58;1.52;;;;;;;1.39;100.00;98796.66;10567114;27;20065;-59
2022/04/18 05:38:42;;;;;;;1.80;1.70;;;;;;;1.46;100.00;98790.03;10566931;27;20047;-54
2022/04/18 05:43:50;;;;;;;2.22;1.45;;;;;;;1.53;100.00;98799.31;10545099;27;20047;-58
2022/04/18 05:48:59;;;;;;;1.73;1.50;;;;;;;1.62;100.00;98797.03;10564744;27;20109;-59
2022/04/18 05:54:03;;;;;;;2.22;1.70;;;;;;;1.71;100.00;98801.75;10547957;27;20053;-58
2022/04/18 05:59:27;;;;;;;1.75;1.60;;;;;;;1.80;100.00;98803.88;10546216;27;20452;-58
2022/04/18 06:04:39;;;;;;;2.35;1.73;;;;;;;1.92;100.00;98804.88;10545552;28;20053;-59
2022/04/18 06:09:57;;;;;;;3.10;1.75;;;;;;;2.02;100.00;98810.47;10569071;28;20810;-58
2022/04/18 06:15:01;;;;;;;3.25;1.67;;;;;;;2.11;100.00;98804.56;10549460;28;20048;-58
2022/04/18 06:20:08;;;;;;;2.35;1.80;;;;;;;2.22;100.00;98811.88;10548230;28;20151;-59
2022/04/18 06:25:13;;;;;;;2.22;1.80;;;;;;;2.34;100.00;98815.53;10568848;27;20052;-59
2022/04/18 06:30:17;;;;;;;3.15;1.80;;;;;;;2.49;100.00;98818.16;10551558;27;20158;-59
2022/04/18 06:35:51;;;;;;;2.38;2.00;;;;;;;2.68;100.00;98809.81;10559848;27;20526;-56
2022/04/18 06:40:54;;;;;;;2.88;2.30;;;;;;;2.82;100.00;98812.41;10573149;27;20047;-58
2022/04/18 06:45:58;;;;;;;2.08;1.90;;;;;;;3.00;100.00;98802.31;10554244;27;20403;-59
2022/04/18 06:51:04;;;;;;;3.10;2.70;;;;;;;3.17;100.00;98803.84;10554083;27;20646;-57
2022/04/18 07:01:53;;;;;;;2.90;2.60;;;;;;;3.65;100.00;98797.88;10484910;28;20720;-58
2022/04/18 07:06:58;;;;;;;2.90;1.90;;;;;;;3.83;100.00;98789.53;10483399;28;20040;-56
2022/04/18 07:12:04;;;;;;;2.38;1.95;;;;;;;4.00;100.00;98796.31;10472908;28;20052;-59
2022/04/18 07:17:08;;;;;;;2.50;1.70;;;;;;;4.18;100.00;98793.28;10471001;28;20052;-57
2022/04/18 07:22:13;;;;;;;2.88;1.65;;;;;;;4.37;100.00;98780.31;10472705;28;20102;-57
2022/04/18 07:27:18;;;;;;;3.40;2.00;;;;;;;4.55;100.00;98785.25;10470636;28;20087;-58
2022/04/18 07:32:33;;;;;;;2.20;1.70;;;;;;;4.81;100.00;98785.97;10487502;28;20424;-58
2022/04/18 07:38:48;;;;;;;2.00;1.80;;;;;;;5.06;100.00;98782.28;10464731;28;20051;-60
2022/04/18 07:43:09;;;;;;;2.92;2.10;;;;;;;5.30;100.00;98780.53;10459925;28;20249;-59
2022/04/18 07:48:12;;;;;;;2.08;1.70;;;;;;;5.55;100.00;98769.63;10483029;28;20059;-58
2022/04/18 07:53:16;;;;;;;1.90;1.70;;;;;;;5.83;100.00;98771.94;10487241;28;21321;-58
2022/04/18 07:58:22;;;;;;;2.40;1.90;;;;;;;6.07;100.00;98785.19;10480842;28;20048;-64
2022/04/18 08:03:26;;;;;;;2.05;1.80;;;;;;;6.31;100.00;98770.78;10467738;28;20109;-58
2022/04/18 08:08:33;;;;;;;2.60;1.70;;;;;;;6.66;100.00;98777.72;10483511;28;20090;-58
2022/04/18 08:13:36;;;;;;;3.97;1.80;;;;;;;6.94;100.00;98784.28;10476232;28;21518;-56
2022/04/18 08:18:58;;;;;;;;;;;;;;;7.21;100.00;98777.59;10481348;28;20054;-57
2022/04/18 08:24:04;;;;;;;2.65;2.00;;;;;;;7.54;100.00;98781.03;10469008;28;21333;-59
2022/04/18 08:29:07;;;;;;;2.92;2.45;;;;;;;7.95;100.00;98773.00;10488036;28;20773;-61
2022/04/18 08:34:29;;;;;;;3.80;2.50;;;;;;;8.35;100.00;98767.75;10481548;28;20120;-60
2022/04/18 08:39:34;;;;;;;2.88;2.63;;;;;;;8.58;100.00;98757.66;10483895;28;20123;-60
2022/04/18 08:44:43;;;;;;;3.15;2.45;;;;;;;8.85;100.00;98764.16;10482112;28;20048;-62
2022/04/18 08:55:10;;;;;;;2.47;2.28;;;;;;;9.25;100.00;98755.06;10476662;28;20048;-62
2022/04/18 09:00:14;;;;;;;2.63;2.40;;;;;;;9.44;100.00;98748.78;10468259;28;20055;-62
2022/04/18 09:05:22;;;;;;;2.97;2.30;;;;;;;9.63;100.00;98750.56;10483660;28;20189;-60
2022/04/18 09:10:27;;;;;;;3.00;2.20;;;;;;;9.72;100.00;98743.44;10462287;28;20126;-61
2022/04/18 09:15:35;;;;;;;2.42;2.22;;;;;;;9.91;100.00;98733.59;10480630;28;20233;-62
2022/04/18 09:20:42;;;;;;;2.20;2.00;;;;;;;10.03;100.00;98743.16;10466209;28;21181;-62
2022/04/18 09:25:47;;;;;;;2.47;2.28;;;;;;;10.16;100.00;98732.91;10460612;28;20639;-61
2022/04/18 09:31:00;;;;;;;2.15;2.00;;;;;;;10.30;100.00;98733.34;10480642;28;20048;-62
2022/04/18 09:36:10;;;;;;;3.90;2.00;;;;;;;10.37;89.07;98734.47;10464934;28;20048;-62
2022/04/18 09:41:22;;;;;;;2.20;2.00;;;;;;;10.43;83.59;98728.47;10462196;28;21446;-61
2022/04/18 09:46:26;;;;;;;2.40;2.10;;;;;;;10.60;98.06;98723.25;10465745;28;20051;-61
2022/04/18 09:51:42;;;;;;;2.72;2.13;;;;;;;10.73;95.40;98712.94;10460073;28;20048;-60
2022/04/18 09:56:51;;;;;;;2.70;2.00;;;;;;;10.75;84.94;98716.34;10504487;28;20047;-62
2022/04/18 10:01:55;;;;;;;2.38;2.10;;;;;;;10.71;87.76;98704.16;10524077;28;20063;-59
2022/04/18 10:06:59;;;;;;;1.83;1.73;;;;;;;10.88;87.39;98699.75;10504236;28;20048;-59
2022/04/18 10:12:10;;;;;;;2.40;2.20;;;;;;;10.93;85.15;98686.66;10524835;28;20050;-59
2022/04/18 10:17:17;;;;;;;2.10;1.90;;;;;;;11.13;85.32;98680.19;10521108;28;20048;-60
2022/04/18 10:22:39;;;;;;;2.28;2.08;;;;;;;11.15;73.57;98673.66;10526634;28;20067;-59
2022/04/18 10:28:14;;;;;;;2.10;1.95;;;;;;;11.33;70.99;98659.25;10516789;28;20119;-59
2022/04/18 10:33:18;;;;;;;2.00;1.90;;;;;;;11.40;71.71;98650.38;10524408;28;20769;-59
2022/04/18 10:38:24;;;;;;;1.60;1.50;;;;;;;11.54;68.89;98646.19;10523607;28;20166;-60
2022/04/18 10:43:59;;;;;;;2.10;1.90;;;;;;;11.64;68.36;98646.09;10523021;28;20388;-62
2022/04/18 10:49:04;;;;;;;1.70;1.60;;;;;;;11.72;67.35;98639.88;10525172;28;20044;-59
2022/04/18 10:54:11;;;;;;;1.70;1.30;;;;;;;11.70;60.71;98636.50;10518121;28;20051;-60
2022/04/18 10:59:17;;;;;;;1.70;1.60;;;;;;;11.62;64.25;98629.22;10520153;28;20044;-61
2022/04/18 11:04:24;;;;;;;1.40;1.30;;;;;;;11.60;57.48;98636.63;10514190;28;20066;-61
2022/04/18 11:09:32;;;;;;;1.83;1.70;;;;;;;11.75;61.02;98627.91;10524628;28;20503;-59
2022/04/18 11:14:55;;;;;;;2.17;1.50;;;;;;;11.75;56.28;98620.66;10530673;28;20112;-60
2022/04/18 11:20:18;;;;;;;1.88;1.70;;;;;;;11.88;61.37;98610.22;10532961;28;20070;-59
2022/04/18 11:25:24;;;;;;;1.73;1.63;;;;;;;12.13;63.17;98613.00;10529963;28;20048;-58
2022/04/18 11:30:29;;;;;;;1.80;1.70;;;;;;;12.25;62.87;98600.03;10532888;28;20043;-58
2022/04/18 11:35:33;;;;;;;2.03;1.60;;;;;;;12.45;57.45;98595.13;10508976;28;20162;-60
2022/04/18 11:40:37;;;;;;;2.10;1.90;;;;;;;12.31;56.72;98593.94;10531572;28;20144;-60
2022/04/18 11:45:42;;;;;;;1.85;1.65;;;;;;;12.44;56.68;98595.28;10517209;22;20143;-57
2022/04/18 11:50:45;;;;;;;2.63;1.90;;;;;;;12.53;54.75;98606.94;10474029;28;20049;-53
2022/04/18 11:55:53;;;;;;;1.80;1.70;;;;;;;12.77;57.85;98592.56;10469162;28;20492;-55
2022/04/18 12:11:39;;;;;;;;;;;;;;;13.13;53.37;98575.91;10465067;28;20044;-55
2022/04/18 12:16:44;;;;;;;1.60;1.50;;;;;;;13.28;52.14;98567.06;10464237;28;20306;-51
2022/04/18 12:21:51;;;;;;;1.60;1.50;;;;;;;13.23;49.34;98560.31;10464632;28;20163;-54
2022/04/18 12:26:54;;;;;;;1.73;1.63;;;;;;;13.14;53.34;98550.56;10463307;28;20048;-60
2022/04/18 12:31:59;;;;;;;1.80;1.70;;;;;;;13.43;55.00;98543.72;10464095;28;20615;-59
2022/04/18 12:37:03;;;;;;;3.20;1.60;;;;;;;13.53;53.29;98543.47;10461593;28;20526;-55
2022/04/18 12:42:09;;;;;;;1.70;1.60;;;;;;;13.69;50.73;98540.69;10464607;28;20128;-54
2022/04/18 12:47:17;;;;;;;1.60;1.50;;;;;;;13.49;48.79;98534.88;10462017;28;20409;-54
2022/04/18 12:52:26;;;;;;;1.50;1.40;;;;;;;14.03;48.13;98533.19;10464527;28;20501;-53
2022/04/18 12:57:31;;;;;;;1.50;1.40;;;;;;;14.18;48.46;98525.09;10462271;28;20516;-56
2022/04/18 13:02:35;;;;;;;1.50;1.40;;;;;;;14.13;48.49;98522.94;10462995;28;20419;-57
2022/04/18 13:07:40;;;;;;;2.40;1.63;;;;;;;14.53;48.08;98516.47;10462492;28;20091;-57
2022/04/18 13:12:43;;;;;;;1.65;1.55;;;;;;;14.84;48.74;98508.22;10461316;28;20122;-57
2022/04/18 13:17:59;;;;;;;1.50;1.40;;;;;;;15.18;46.77;98492.41;10457149;28;20504;-56
2022/04/18 13:23:04;;;;;;;2.53;1.73;;;;;;;14.95;46.63;98499.63;10281367;28;5002013;-59
2022/04/18 13:28:09;;;;;;;1.88;1.45;;;;;;;14.64;44.39;98497.06;10461770;28;20131;-57
2022/04/18 13:33:13;;;;;;;1.50;1.40;;;;;;;14.63;45.06;98495.41;10460229;28;20114;-58
2022/04/18 13:38:17;;;;;;;1.73;1.50;;;;;;;14.61;44.33;98475.75;10459669;28;20047;-58
2022/04/18 13:43:20;;;;;;;2.08;1.52;;;;;;;14.95;45.87;98464.34;10459634;28;20095;-58
2022/04/18 13:48:24;;;;;;;2.58;1.48;;;;;;;15.36;45.06;98467.56;10461638;28;20041;-58
2022/04/18 13:53:27;;;;;;;2.10;1.52;;;;;;;15.64;43.04;98450.53;10460953;28;20045;-59
2022/04/18 13:58:35;;;;;;;1.70;1.60;;;;;;;15.87;44.12;98444.94;10460495;28;20508;-58
2022/04/18 14:03:41;;;;;;;1.77;1.67;;;;;;;15.99;41.34;98443.38;10461167;28;20048;-59
2022/04/18 14:08:45;;;;;;;1.60;1.50;;;;;;;16.32;42.68;98434.63;10459646;28;20569;-57
2022/04/18 14:13:48;;;;;;;1.60;1.30;;;;;;;16.76;41.97;98424.44;10457095;28;20052;-56
2022/04/18 14:24:14;;;;;;;2.50;1.25;;;;;;;16.89;39.52;98426.38;10458564;28;20044;-60
2022/04/18 14:29:17;;;;;;;2.90;1.30;;;;;;;16.63;40.07;98427.94;10460341;28;20053;-59
2022/04/18 14:34:22;;;;;;;1.33;1.23;;;;;;;17.05;40.55;98416.22;10459786;28;20063;-58
2022/04/18 14:39:25;;;;;;;1.88;1.50;;;;;;;17.25;40.66;98410.84;10460373;28;20056;-61
2022/04/18 14:44:29;;;;;;;2.15;1.20;;;;;;;17.38;38.72;98410.03;10459177;28;20056;-58
2022/04/18 14:55:38;;;;;;;1.20;1.10;;;;;;;16.65;38.87;98400.53;10466608;28;20080;-58
2022/04/18 15:00:43;;;;;;;1.30;1.20;;;;;;;16.39;38.37;98403.94;10467969;28;20044;-57
2022/04/18 15:05:47;;;;;;;1.38;1.27;;;;;;;16.86;37.71;98396.03;10467401;28;20045;-57
2022/04/18 15:10:52;;;;;;;1.95;1.40;;;;;;;17.34;37.53;98395.19;10467919;28;20087;-57
2022/04/18 15:15:57;;;;;;;3.75;1.20;;;;;;;16.71;35.66;98388.00;10466585;28;20051;-59
2022/04/18 15:21:00;;;;;;;1.20;0.95;;;;;;;17.29;36.06;98382.16;10464635;28;20044;-58
2022/04/18 15:26:05;;;;;;;1.10;1.00;;;;;;;17.10;36.44;98387.34;10466525;28;20048;-57
2022/04/18 15:36:33;;;;;;;0.80;0.80;;;;;;;17.25;34.78;98379.00;10448101;28;20056;-58
2022/04/18 15:41:37;;;;;;;0.80;0.80;;;;;;;17.50;33.16;98386.59;10466265;28;20048;-58
2022/04/18 15:46:41;;;;;;;1.45;1.00;;;;;;;17.50;34.40;98375.72;10464077;28;20071;-58
2022/04/18 15:51:44;;;;;;;1.10;1.00;;;;;;;17.42;34.13;98375.91;10462910;28;20055;-59
2022/04/18 15:56:49;;;;;;;1.20;1.10;;;;;;;17.05;32.60;98372.69;10465670;28;20130;-58
2022/04/18 16:01:52;;;;;;;2.75;0.80;;;;;;;17.32;33.57;98375.47;10465043;28;20056;-58
2022/04/18 16:06:56;;;;;;;1.00;0.90;;;;;;;17.65;33.53;98363.78;10465237;28;20037;-58
2022/04/18 16:12:02;;;;;;;1.35;0.90;;;;;;;17.80;33.55;98364.44;10465839;28;20056;-56
2022/04/18 16:17:05;;;;;;;1.10;1.00;;;;;;;17.65;33.43;98367.34;10271748;28;5002075;-57
2022/04/18 16:22:08;;;;;;;1.75;0.98;;;;;;;17.85;33.80;98364.63;10463005;28;20117;-59
2022/04/18 16:27:12;;;;;;;1.13;1.02;;;;;;;17.70;32.50;98350.38;10461880;28;20135;-59
2022/04/18 16:32:15;;;;;;;1.50;1.10;;;;;;;17.94;33.11;98356.22;10461706;28;20174;-56
2022/04/18 16:37:18;;;;;;;1.00;0.90;;;;;;;17.84;32.98;98346.59;10462593;28;20844;-58
2022/04/18 16:47:44;;;;;;;1.33;1.05;;;;;;;17.66;32.95;98335.50;10461330;28;20072;-59
2022/04/18 16:52:49;;;;;;;1.45;1.20;;;;;;;17.53;34.52;98339.91;10462240;28;20045;-59
2022/04/18 16:57:54;;;;;;;1.02;1.00;;;;;;;17.72;34.48;98331.94;10461477;28;20045;-58
2022/04/18 17:02:57;;;;;;;1.40;1.30;;;;;;;17.60;35.32;98331.72;10462265;28;20540;-57
2022/04/18 17:08:00;;;;;;;2.10;1.17;;;;;;;17.61;35.68;98327.09;10461116;28;21348;-58
2022/04/18 17:13:05;;;;;;;1.23;0.93;;;;;;;17.16;35.88;98335.88;10462659;28;20677;-59
2022/04/18 17:18:08;;;;;;;2.35;1.20;;;;;;;17.21;35.88;98323.31;10460956;28;20047;-59
2022/04/18 17:23:11;;;;;;;1.30;0.90;;;;;;;17.09;36.91;98320.34;10461666;28;20047;-59
2022/04/18 17:28:16;;;;;;;1.05;0.90;;;;;;;16.95;37.00;98324.06;10457820;28;20064;-57
2022/04/18 17:33:20;;;;;;;1.38;1.00;;;;;;;16.66;37.49;98314.31;10460082;28;20132;-58
2022/04/18 17:38:23;;;;;;;1.17;1.00;;;;;;;16.53;38.16;98307.78;10459981;28;20048;-59
2022/04/18 17:43:27;;;;;;;0.90;0.90;;;;;;;16.12;38.88;98317.59;10460912;28;20131;-59
2022/04/18 17:48:30;;;;;;;1.23;0.95;;;;;;;15.62;39.62;98314.13;10459171;28;20052;-56
2022/04/18 17:58:56;;;;;;;1.53;1.00;;;;;;;14.45;40.84;98317.66;10463824;28;20076;-58
2022/04/18 18:03:59;;;;;;;1.10;0.90;;;;;;;14.25;42.05;98313.88;10456602;28;20481;-57
2022/04/18 18:09:02;;;;;;;1.67;0.90;;;;;;;13.82;42.26;98304.50;10461615;28;20127;-54
2022/04/18 18:14:06;;;;;;;2.13;1.10;;;;;;;13.49;43.15;98321.06;10459248;28;20064;-54
2022/04/18 18:19:10;;;;;;;1.00;0.90;;;;;;;13.15;43.41;98325.03;10462078;28;20127;-56
2022/04/18 18:24:13;;;;;;;0.85;0.80;;;;;;;12.88;43.81;98324.50;10470380;28;20119;-55
2022/04/18 18:29:19;;;;;;;0.82;0.80;;;;;;;12.57;44.49;98333.47;10450455;28;20048;-59
2022/04/18 18:34:22;;;;;;;3.28;0.88;;;;;;;12.27;44.78;98319.78;10465363;28;21074;-55
2022/04/18 18:39:25;;;;;;;0.90;0.90;;;;;;;12.11;45.69;98327.91;10468966;28;20040;-51
2022/04/18 18:44:29;;;;;;;1.50;0.90;;;;;;;11.90;46.53;98329.31;10469841;28;20121;-53
2022/04/18 18:49:32;;;;;;;1.08;0.90;;;;;;;11.77;47.23;98331.69;10470152;28;20040;-52
2022/04/18 18:54:35;;;;;;;1.10;0.80;;;;;;;11.66;47.66;98327.47;10469875;28;20829;-51
2022/04/18 18:59:40;;;;;;;1.02;0.90;;;;;;;11.57;47.63;98330.19;10458446;28;20135;-51
2022/04/18 19:04:43;;;;;;;2.10;0.80;;;;;;;11.48;48.30;98330.34;10471595;28;20217;-50
2022/04/18 19:09:48;;;;;;;0.73;0.70;;;;;;;11.40;48.85;98331.22;10474928;28;20051;-52
2022/04/18 19:14:52;;;;;;;0.80;0.80;;;;;;;11.32;48.88;98329.38;10473353;28;20048;-53
2022/04/18 19:31:02;;;;;;;1.10;1.00;;;;;;;11.05;48.94;98309.78;10465930;28;20036;-53
2022/04/18 19:36:06;;;;;;;1.98;0.90;;;;;;;10.99;49.37;98313.16;10453583;28;20858;-54
2022/04/18 19:41:09;;;;;;;0.95;0.95;;;;;;;10.98;50.14;98313.31;10464661;28;20048;-51
2022/04/18 19:46:13;;;;;;;1.50;0.90;;;;;;;10.89;51.83;98310.63;10465848;28;20066;-55
2022/04/18 19:51:20;;;;;;;2.58;0.98;;;;;;;10.70;53.91;98316.31;10466349;28;20056;-54
2022/04/18 19:56:23;;;;;;;1.30;1.15;;;;;;;10.41;56.13;98309.50;10451517;28;20056;-54
2022/04/18 20:01:28;;;;;;;2.88;1.17;;;;;;;10.24;56.98;98306.69;10448801;28;20059;-59
2022/04/18 20:06:31;;;;;;;1.40;1.00;;;;;;;10.02;58.93;98306.25;10465352;28;20509;-51
2022/04/18 20:11:34;;;;;;;1.20;0.90;;;;;;;9.66;63.03;98301.00;10445806;28;20053;-54
2022/04/18 20:16:38;;;;;;;0.98;0.90;;;;;;;9.56;64.25;98301.13;10464356;28;21342;-54
2022/04/18 20:21:42;;;;;;;0.90;0.90;;;;;;;9.44;66.27;98307.78;10465870;28;20057;-56
2022/04/18 20:26:45;;;;;;;0.90;0.90;;;;;;;9.32;68.16;98304.47;10461620;28;20119;-62
2022/04/18 20:31:52;;;;;;;1.20;1.10;;;;;;;9.18;70.97;98307.72;10461927;28;20048;-60
2022/04/18 20:36:56;;;;;;;2.30;1.70;;;;;;;9.04;74.22;98307.28;10461848;28;20056;-61
2022/04/18 20:42:00;;;;;;;4.05;2.42;;;;;;;8.98;75.81;98304.38;10458611;28;20111;-62
2022/04/18 20:47:05;;;;;;;2.33;2.03;;;;;;;8.91;76.48;98306.81;10462395;28;20130;-61
2022/04/18 20:58:30;;;;;;;2.15;1.60;;;;;;;8.84;77.17;98309.28;10463697;28;20043;-61
2022/04/18 21:02:53;;;;;;;1.30;1.20;;;;;;;8.67;78.26;98297.53;10464195;28;20044;-62
2022/04/18 21:07:57;;;;;;;1.45;1.30;;;;;;;8.58;80.91;98285.03;10469014;28;20052;-62
2022/04/18 21:13:00;;;;;;;1.50;1.40;;;;;;;8.46;84.19;98297.78;10463639;28;20083;-62
2022/04/18 21:18:06;;;;;;;1.85;1.30;;;;;;;8.36;87.07;98289.75;10463504;28;20509;-60
2022/04/18 21:23:11;;;;;;;2.55;1.42;;;;;;;8.23;89.59;98286.63;10465093;28;20130;-60
2022/04/18 21:28:14;;;;;;;1.50;1.40;;;;;;;8.11;89.56;98283.28;10464923;28;20040;-60
2022/04/18 21:33:19;;;;;;;1.60;1.50;;;;;;;8.08;88.55;98278.19;10465209;28;20049;-60
2022/04/18 21:38:22;;;;;;;1.70;1.38;;;;;;;8.06;88.73;98277.50;10460808;28;20063;-60
2022/04/18 21:43:25;;;;;;;2.08;1.40;;;;;;;8.01;86.80;98270.75;10461347;28;20138;-60
2022/04/18 21:48:29;;;;;;;1.40;1.30;;;;;;;7.98;85.41;98275.59;10458343;28;20056;-59
2022/04/18 21:53:33;;;;;;;1.58;1.25;;;;;;;7.95;84.36;98279.38;10461004;28;20064;-59
2022/04/18 21:58:36;;;;;;;1.63;1.17;;;;;;;7.93;83.73;98276.03;10461040;28;20500;-60
2022/04/18 22:03:42;;;;;;;1.30;1.20;;;;;;;7.90;84.30;98273.63;10443585;28;21202;-59
2022/04/18 22:08:45;;;;;;;2.25;1.25;;;;;;;7.86;85.46;98258.81;10447804;28;20135;-60
2022/04/18 22:13:48;;;;;;;1.50;1.40;;;;;;;7.79;87.81;98250.50;10460117;28;20102;-57
2022/04/18 22:29:34;;;;;;;1.30;1.20;;;;;;;7.59;95.48;98247.06;10460470;28;20055;-58
2022/04/18 22:34:38;;;;;;;1.10;1.10;;;;;;;7.49;97.70;98240.88;10459536;28;20078;-59
2022/04/18 22:39:41;;;;;;;1.45;1.35;;;;;;;7.36;99.61;98242.06;10463425;28;20514;-59
2022/04/18 22:44:44;;;;;;;1.80;1.40;;;;;;;7.28;100.00;98227.72;10459323;28;20138;-59
2022/04/18 22:49:49;;;;;;;1.58;1.30;;;;;;;7.18;100.00;98217.00;10460015;28;20773;-59
2022/04/18 22:54:52;;;;;;;2.05;1.30;;;;;;;7.08;100.00;98214.34;10453206;28;20875;-59
2022/04/18 22:59:56;;;;;;;1.70;1.30;;;;;;;6.98;100.00;98206.34;10459713;28;20261;-59
2022/04/18 23:10:22;;;;;;;2.20;1.25;;;;;;;6.72;100.00;98196.22;10467576;28;20556;-59
2022/04/18 23:15:25;;;;;;;2.28;2.03;;;;;;;6.59;100.00;98193.81;10467134;28;20048;-60
2022/04/18 23:20:31;;;;;;;1.80;1.70;;;;;;;6.47;100.00;98190.47;10468019;28;20087;-58
2022/04/18 23:25:34;;;;;;;4.28;1.77;;;;;;;6.41;100.00;98185.66;10464106;28;20064;-59
2022/04/18 23:30:37;;;;;;;2.03;1.52;;;;;;;6.32;100.00;98173.13;10465644;28;20056;-60
2022/04/18 23:35:42;;;;;;;1.50;1.40;;;;;;;6.27;100.00;98167.38;10465741;28;20123;-59
2022/04/18 23:46:07;;;;;;;1.50;1.40;;;;;;;6.13;100.00;98164.13;10465703;28;20091;-59
2022/04/18 23:51:13;;;;;;;2.25;1.73;;;;;;;6.08;100.00;98155.66;10466322;28;20052;-60
2022/04/18 23:56:17;;;;;;;1.52;1.40;;;;;;;6.06;100.00;98140.75;10462385;28;20048;-59
